sensor_id;sensor_type;location;lat;lon;timestamp;temperature;humidity
18950;DHT22;9608;49.288;8.130;2022-10-16T00:01:24;17.70;99.90
18950;DHT22;9608;49.288;8.130;2022-10-16T00:03:52;17.70;99.90
18950;DHT22;9608;49.288;8.130;2022-10-16T00:06:20;17.70;99.90
18950;DHT22;9608;49.288;8.130;2022-10-16T00:08:48;17.60;99.90
18950;DHT22;9608;49.288;8.130;2022-10-16T00:11:17;17.60;99.90
18950;DHT22;9608;49.288;8.130;2022-10-16T00:13:45;17.50;99.90
18950;DHT22;9608;49.288;8.130;2022-10-16T00:16:13;17.50;99.90
18950;DHT22;9608;49.288;8.130;2022-10-16T00:18:41;17.60;99.90
18950;DHT22;9608;49.288;8.130;2022-10-16T00:21:09;17.50;99.90
18950;DHT22;9608;49.288;8.130;2022-10-16T00:23:36;17.40;99.90
18950;DHT22;9608;49.288;8.130;2022-10-16T00:26:05;17.50;99.90
18950;DHT22;9608;49.288;8.130;2022-10-16T00:28:34;17.50;99.90
18950;DHT22;9608;49.288;8.130;2022-10-16T00:31:03;17.60;99.90
18950;DHT22;9608;49.288;8.130;2022-10-16T00:33:30;17.60;99.90
18950;DHT22;9608;49.288;8.130;2022-10-16T00:35:58;17.70;99.90
18950;DHT22;9608;49.288;8.130;2022-10-16T00:38:25;17.60;99.90
18950;DHT22;9608;49.288;8.130;2022-10-16T00:40:51;17.70;99.90
18950;DHT22;9608;49.288;8.130;2022-10-16T00:43:36;17.70;99.90
18950;DHT22;9608;49.288;8.130;2022-10-16T00:46:07;17.70;99.90
18950;DHT22;9608;49.288;8.130;2022-10-16T00:48:35;17.80;99.90
18950;DHT22;9608;49.288;8.130;2022-10-16T00:51:02;17.80;99.90
18950;DHT22;9608;49.288;8.130;2022-10-16T00:53:31;17.70;99.90
18950;DHT22;9608;49.288;8.130;2022-10-16T00:55:57;17.70;99.90
18950;DHT22;9608;49.288;8.130;2022-10-16T00:58:24;17.70;99.90
18950;DHT22;9608;49.288;8.130;2022-10-16T01:00:52;17.70;99.90
18950;DHT22;9608;49.288;8.130;2022-10-16T01:03:26;17.70;99.90
18950;DHT22;9608;49.288;8.130;2022-10-16T01:06:01;17.70;99.90
18950;DHT22;9608;49.288;8.130;2022-10-16T01:08:34;17.70;99.90
18950;DHT22;9608;49.288;8.130;2022-10-16T01:11:09;17.70;99.90
18950;DHT22;9608;49.288;8.130;2022-10-16T01:13:42;17.60;99.90
18950;DHT22;9608;49.288;8.130;2022-10-16T01:16:18;17.60;99.90
18950;DHT22;9608;49.288;8.130;2022-10-16T01:18:54;17.50;99.90
18950;DHT22;9608;49.288;8.130;2022-10-16T01:21:26;17.40;99.90
18950;DHT22;9608;49.288;8.130;2022-10-16T01:24:02;17.40;99.90
18950;DHT22;9608;49.288;8.130;2022-10-16T01:26:49;17.30;99.90
18950;DHT22;9608;49.288;8.130;2022-10-16T01:29:21;17.30;99.90
18950;DHT22;9608;49.288;8.130;2022-10-16T01:31:56;17.30;99.90
18950;DHT22;9608;49.288;8.130;2022-10-16T01:34:30;17.30;99.90
18950;DHT22;9608;49.288;8.130;2022-10-16T01:37:03;17.30;99.90
18950;DHT22;9608;49.288;8.130;2022-10-16T01:39:33;17.20;99.90
18950;DHT22;9608;49.288;8.130;2022-10-16T01:42:05;17.20;99.90
18950;DHT22;9608;49.288;8.130;2022-10-16T01:44:35;17.20;99.90
18950;DHT22;9608;49.288;8.130;2022-10-16T01:47:07;17.20;99.90
18950;DHT22;9608;49.288;8.130;2022-10-16T01:49:38;17.20;99.90
18950;DHT22;9608;49.288;8.130;2022-10-16T01:52:07;17.20;99.90
18950;DHT22;9608;49.288;8.130;2022-10-16T01:54:37;17.20;99.90
18950;DHT22;9608;49.288;8.130;2022-10-16T01:57:07;17.20;99.90
18950;DHT22;9608;49.288;8.130;2022-10-16T01:59:39;17.20;99.90
18950;DHT22;9608;49.288;8.130;2022-10-16T02:02:09;17.20;99.90
18950;DHT22;9608;49.288;8.130;2022-10-16T02:04:39;17.20;99.90
18950;DHT22;9608;49.288;8.130;2022-10-16T02:07:07;17.20;99.90
18950;DHT22;9608;49.288;8.130;2022-10-16T02:09:34;17.20;99.90
18950;DHT22;9608;49.288;8.130;2022-10-16T02:12:06;17.20;99.90
18950;DHT22;9608;49.288;8.130;2022-10-16T02:14:39;17.20;99.90
18950;DHT22;9608;49.288;8.130;2022-10-16T02:17:11;17.20;99.90
18950;DHT22;9608;49.288;8.130;2022-10-16T02:19:38;17.20;99.90
18950;DHT22;9608;49.288;8.130;2022-10-16T02:22:07;17.20;99.90
18950;DHT22;9608;49.288;8.130;2022-10-16T02:24:39;17.20;99.90
18950;DHT22;9608;49.288;8.130;2022-10-16T02:27:11;17.20;99.90
18950;DHT22;9608;49.288;8.130;2022-10-16T02:29:43;17.20;99.90
18950;DHT22;9608;49.288;8.130;2022-10-16T02:32:18;17.10;99.90
18950;DHT22;9608;49.288;8.130;2022-10-16T02:34:47;17.20;99.90
18950;DHT22;9608;49.288;8.130;2022-10-16T02:37:15;17.10;99.90
18950;DHT22;9608;49.288;8.130;2022-10-16T02:39:43;17.10;99.90
18950;DHT22;9608;49.288;8.130;2022-10-16T02:42:11;17.00;99.90
18950;DHT22;9608;49.288;8.130;2022-10-16T02:44:38;17.00;99.90
18950;DHT22;9608;49.288;8.130;2022-10-16T02:47:06;17.00;99.90
18950;DHT22;9608;49.288;8.130;2022-10-16T02:49:33;17.10;99.90
18950;DHT22;9608;49.288;8.130;2022-10-16T02:52:00;17.10;99.90
18950;DHT22;9608;49.288;8.130;2022-10-16T02:54:26;17.10;99.90
18950;DHT22;9608;49.288;8.130;2022-10-16T02:56:53;17.20;99.90
18950;DHT22;9608;49.288;8.130;2022-10-16T02:59:20;17.20;99.90
18950;DHT22;9608;49.288;8.130;2022-10-16T03:01:46;17.20;99.90
18950;DHT22;9608;49.288;8.130;2022-10-16T03:04:14;17.20;99.90
18950;DHT22;9608;49.288;8.130;2022-10-16T03:06:41;17.20;99.90
18950;DHT22;9608;49.288;8.130;2022-10-16T03:09:08;17.20;99.90
18950;DHT22;9608;49.288;8.130;2022-10-16T03:11:34;17.20;99.90
18950;DHT22;9608;49.288;8.130;2022-10-16T03:14:01;17.30;99.90
18950;DHT22;9608;49.288;8.130;2022-10-16T03:16:28;17.30;99.90
18950;DHT22;9608;49.288;8.130;2022-10-16T03:18:54;17.20;99.90
18950;DHT22;9608;49.288;8.130;2022-10-16T03:21:22;17.20;99.90
18950;DHT22;9608;49.288;8.130;2022-10-16T03:23:49;17.10;99.90
18950;DHT22;9608;49.288;8.130;2022-10-16T03:26:16;17.10;99.90
18950;DHT22;9608;49.288;8.130;2022-10-16T03:28:42;17.00;99.90
18950;DHT22;9608;49.288;8.130;2022-10-16T03:31:09;17.00;99.90
18950;DHT22;9608;49.288;8.130;2022-10-16T03:33:36;16.90;99.90
18950;DHT22;9608;49.288;8.130;2022-10-16T03:36:03;16.90;99.90
18950;DHT22;9608;49.288;8.130;2022-10-16T03:38:31;16.80;99.90
18950;DHT22;9608;49.288;8.130;2022-10-16T03:40:57;16.80;99.90
18950;DHT22;9608;49.288;8.130;2022-10-16T03:43:24;16.80;99.90
18950;DHT22;9608;49.288;8.130;2022-10-16T03:45:51;16.80;99.90
18950;DHT22;9608;49.288;8.130;2022-10-16T03:48:18;16.90;99.90
18950;DHT22;9608;49.288;8.130;2022-10-16T03:50:45;16.80;99.90
18950;DHT22;9608;49.288;8.130;2022-10-16T03:53:13;16.80;99.90
18950;DHT22;9608;49.288;8.130;2022-10-16T03:55:42;16.80;99.90
18950;DHT22;9608;49.288;8.130;2022-10-16T03:58:09;16.80;99.90
18950;DHT22;9608;49.288;8.130;2022-10-16T04:00:36;16.80;99.90
18950;DHT22;9608;49.288;8.130;2022-10-16T04:03:06;16.80;99.90
18950;DHT22;9608;49.288;8.130;2022-10-16T04:05:32;16.70;99.90
18950;DHT22;9608;49.288;8.130;2022-10-16T04:07:59;16.70;99.90
18950;DHT22;9608;49.288;8.130;2022-10-16T04:10:26;16.70;99.90
18950;DHT22;9608;49.288;8.130;2022-10-16T04:12:54;16.70;99.90
18950;DHT22;9608;49.288;8.130;2022-10-16T04:15:21;16.70;99.90
18950;DHT22;9608;49.288;8.130;2022-10-16T04:17:48;16.80;99.90
18950;DHT22;9608;49.288;8.130;2022-10-16T04:20:14;16.70;99.90
18950;DHT22;9608;49.288;8.130;2022-10-16T04:22:41;16.80;99.90
18950;DHT22;9608;49.288;8.130;2022-10-16T04:25:09;16.80;99.90
18950;DHT22;9608;49.288;8.130;2022-10-16T04:27:36;16.80;99.90
18950;DHT22;9608;49.288;8.130;2022-10-16T04:30:05;16.70;99.90
18950;DHT22;9608;49.288;8.130;2022-10-16T04:32:32;16.70;99.90
18950;DHT22;9608;49.288;8.130;2022-10-16T04:34:59;16.60;99.90
18950;DHT22;9608;49.288;8.130;2022-10-16T04:37:26;16.70;99.90
18950;DHT22;9608;49.288;8.130;2022-10-16T04:39:53;16.70;99.90
18950;DHT22;9608;49.288;8.130;2022-10-16T04:42:20;16.70;99.90
18950;DHT22;9608;49.288;8.130;2022-10-16T04:44:47;16.60;99.90
18950;DHT22;9608;49.288;8.130;2022-10-16T04:47:15;16.60;99.90
18950;DHT22;9608;49.288;8.130;2022-10-16T04:49:42;16.60;99.90
18950;DHT22;9608;49.288;8.130;2022-10-16T04:52:08;16.60;99.90
18950;DHT22;9608;49.288;8.130;2022-10-16T04:54:35;16.50;99.90
18950;DHT22;9608;49.288;8.130;2022-10-16T04:57:02;16.60;99.90
18950;DHT22;9608;49.288;8.130;2022-10-16T04:59:30;16.50;99.90
18950;DHT22;9608;49.288;8.130;2022-10-16T05:01:56;16.50;99.90
18950;DHT22;9608;49.288;8.130;2022-10-16T05:04:24;16.60;99.90
18950;DHT22;9608;49.288;8.130;2022-10-16T05:06:51;16.60;99.90
18950;DHT22;9608;49.288;8.130;2022-10-16T05:09:18;16.60;99.90
18950;DHT22;9608;49.288;8.130;2022-10-16T05:11:45;16.60;99.90
18950;DHT22;9608;49.288;8.130;2022-10-16T05:14:11;16.60;99.90
18950;DHT22;9608;49.288;8.130;2022-10-16T05:16:38;16.60;99.90
18950;DHT22;9608;49.288;8.130;2022-10-16T05:19:05;16.60;99.90
18950;DHT22;9608;49.288;8.130;2022-10-16T05:21:33;16.60;99.90
18950;DHT22;9608;49.288;8.130;2022-10-16T05:23:59;16.60;99.90
18950;DHT22;9608;49.288;8.130;2022-10-16T05:26:26;16.60;99.90
18950;DHT22;9608;49.288;8.130;2022-10-16T05:28:53;16.50;99.90
18950;DHT22;9608;49.288;8.130;2022-10-16T05:31:19;16.40;99.90
18950;DHT22;9608;49.288;8.130;2022-10-16T05:33:46;16.20;99.90
18950;DHT22;9608;49.288;8.130;2022-10-16T05:36:13;16.40;99.90
18950;DHT22;9608;49.288;8.130;2022-10-16T05:38:41;16.40;99.90
18950;DHT22;9608;49.288;8.130;2022-10-16T05:41:07;16.50;99.90
18950;DHT22;9608;49.288;8.130;2022-10-16T05:43:34;16.50;99.90
18950;DHT22;9608;49.288;8.130;2022-10-16T05:46:02;16.60;99.90
18950;DHT22;9608;49.288;8.130;2022-10-16T05:48:29;16.60;99.90
18950;DHT22;9608;49.288;8.130;2022-10-16T05:50:57;16.50;99.90
18950;DHT22;9608;49.288;8.130;2022-10-16T05:53:24;16.30;99.90
18950;DHT22;9608;49.288;8.130;2022-10-16T05:55:53;16.30;99.90
18950;DHT22;9608;49.288;8.130;2022-10-16T05:58:20;16.20;99.90
18950;DHT22;9608;49.288;8.130;2022-10-16T06:00:53;16.00;99.90
18950;DHT22;9608;49.288;8.130;2022-10-16T06:03:20;15.90;99.90
18950;DHT22;9608;49.288;8.130;2022-10-16T06:05:46;15.70;99.90
18950;DHT22;9608;49.288;8.130;2022-10-16T06:08:13;15.60;99.90
18950;DHT22;9608;49.288;8.130;2022-10-16T06:10:40;15.60;99.90
18950;DHT22;9608;49.288;8.130;2022-10-16T06:13:08;15.60;99.90
18950;DHT22;9608;49.288;8.130;2022-10-16T06:15:35;15.60;99.90
18950;DHT22;9608;49.288;8.130;2022-10-16T06:18:01;15.70;99.90
18950;DHT22;9608;49.288;8.130;2022-10-16T06:20:28;15.80;99.90
18950;DHT22;9608;49.288;8.130;2022-10-16T06:22:55;15.90;99.90
18950;DHT22;9608;49.288;8.130;2022-10-16T06:25:21;15.90;99.90
18950;DHT22;9608;49.288;8.130;2022-10-16T06:27:48;15.80;99.90
18950;DHT22;9608;49.288;8.130;2022-10-16T06:30:16;15.80;99.90
18950;DHT22;9608;49.288;8.130;2022-10-16T06:32:43;15.90;99.90
18950;DHT22;9608;49.288;8.130;2022-10-16T06:35:09;16.00;99.90
18950;DHT22;9608;49.288;8.130;2022-10-16T06:37:36;16.20;99.90
18950;DHT22;9608;49.288;8.130;2022-10-16T06:40:03;16.30;99.90
18950;DHT22;9608;49.288;8.130;2022-10-16T06:42:30;16.30;99.90
18950;DHT22;9608;49.288;8.130;2022-10-16T06:44:57;16.40;99.90
18950;DHT22;9608;49.288;8.130;2022-10-16T06:47:25;16.40;99.90
18950;DHT22;9608;49.288;8.130;2022-10-16T06:49:52;16.40;99.90
18950;DHT22;9608;49.288;8.130;2022-10-16T06:52:18;16.40;99.90
18950;DHT22;9608;49.288;8.130;2022-10-16T06:54:45;16.50;99.90
18950;DHT22;9608;49.288;8.130;2022-10-16T06:57:12;16.60;99.90
18950;DHT22;9608;49.288;8.130;2022-10-16T06:59:38;16.60;99.90
18950;DHT22;9608;49.288;8.130;2022-10-16T07:02:06;16.70;99.90
18950;DHT22;9608;49.288;8.130;2022-10-16T07:04:35;16.80;99.90
18950;DHT22;9608;49.288;8.130;2022-10-16T07:07:02;16.70;99.90
18950;DHT22;9608;49.288;8.130;2022-10-16T07:09:29;16.70;99.90
18950;DHT22;9608;49.288;8.130;2022-10-16T07:11:55;16.80;99.90
18950;DHT22;9608;49.288;8.130;2022-10-16T07:14:22;16.90;99.90
18950;DHT22;9608;49.288;8.130;2022-10-16T07:16:49;16.90;99.90
18950;DHT22;9608;49.288;8.130;2022-10-16T07:19:15;17.00;99.90
18950;DHT22;9608;49.288;8.130;2022-10-16T07:21:45;17.20;99.90
18950;DHT22;9608;49.288;8.130;2022-10-16T07:24:13;17.20;99.90
18950;DHT22;9608;49.288;8.130;2022-10-16T07:26:40;17.10;99.90
18950;DHT22;9608;49.288;8.130;2022-10-16T07:29:12;17.00;99.90
18950;DHT22;9608;49.288;8.130;2022-10-16T07:31:39;17.00;99.90
18950;DHT22;9608;49.288;8.130;2022-10-16T07:34:06;17.10;99.90
18950;DHT22;9608;49.288;8.130;2022-10-16T07:36:32;17.30;99.90
18950;DHT22;9608;49.288;8.130;2022-10-16T07:39:01;17.40;99.90
18950;DHT22;9608;49.288;8.130;2022-10-16T07:41:27;17.50;99.90
18950;DHT22;9608;49.288;8.130;2022-10-16T07:43:55;17.50;99.90
18950;DHT22;9608;49.288;8.130;2022-10-16T07:46:26;17.70;99.90
18950;DHT22;9608;49.288;8.130;2022-10-16T07:48:52;17.80;99.90
18950;DHT22;9608;49.288;8.130;2022-10-16T07:51:22;18.00;99.90
18950;DHT22;9608;49.288;8.130;2022-10-16T07:53:49;18.20;99.90
18950;DHT22;9608;49.288;8.130;2022-10-16T07:56:18;18.20;99.90
18950;DHT22;9608;49.288;8.130;2022-10-16T07:58:45;18.20;99.90
18950;DHT22;9608;49.288;8.130;2022-10-16T08:01:13;18.10;99.90
18950;DHT22;9608;49.288;8.130;2022-10-16T08:03:41;18.10;99.90
18950;DHT22;9608;49.288;8.130;2022-10-16T08:06:08;18.00;99.90
18950;DHT22;9608;49.288;8.130;2022-10-16T08:08:35;18.10;99.90
18950;DHT22;9608;49.288;8.130;2022-10-16T08:11:02;18.10;99.90
18950;DHT22;9608;49.288;8.130;2022-10-16T08:13:31;18.20;99.90
18950;DHT22;9608;49.288;8.130;2022-10-16T08:15:58;18.30;99.90
18950;DHT22;9608;49.288;8.130;2022-10-16T08:18:25;18.50;99.90
18950;DHT22;9608;49.288;8.130;2022-10-16T08:20:55;18.50;99.90
18950;DHT22;9608;49.288;8.130;2022-10-16T08:23:23;18.80;99.90
18950;DHT22;9608;49.288;8.130;2022-10-16T08:25:51;19.00;99.90
18950;DHT22;9608;49.288;8.130;2022-10-16T08:28:18;19.20;99.90
18950;DHT22;9608;49.288;8.130;2022-10-16T08:30:46;19.40;99.90
18950;DHT22;9608;49.288;8.130;2022-10-16T08:33:13;19.70;99.90
18950;DHT22;9608;49.288;8.130;2022-10-16T08:35:39;19.90;99.90
18950;DHT22;9608;49.288;8.130;2022-10-16T08:38:06;20.10;99.90
18950;DHT22;9608;49.288;8.130;2022-10-16T08:40:36;20.20;99.90
18950;DHT22;9608;49.288;8.130;2022-10-16T08:43:16;20.40;99.90
18950;DHT22;9608;49.288;8.130;2022-10-16T08:46:07;20.50;99.90
18950;DHT22;9608;49.288;8.130;2022-10-16T08:48:43;20.50;99.90
18950;DHT22;9608;49.288;8.130;2022-10-16T08:51:14;20.60;99.90
18950;DHT22;9608;49.288;8.130;2022-10-16T08:53:52;20.80;99.90
18950;DHT22;9608;49.288;8.130;2022-10-16T08:56:20;21.20;99.90
18950;DHT22;9608;49.288;8.130;2022-10-16T08:58:47;21.50;99.90
18950;DHT22;9608;49.288;8.130;2022-10-16T09:01:17;21.70;99.90
18950;DHT22;9608;49.288;8.130;2022-10-16T09:03:58;21.80;99.90
18950;DHT22;9608;49.288;8.130;2022-10-16T09:06:40;21.60;99.90
18950;DHT22;9608;49.288;8.130;2022-10-16T09:09:40;21.60;99.90
18950;DHT22;9608;49.288;8.130;2022-10-16T09:12:14;21.60;99.90
18950;DHT22;9608;49.288;8.130;2022-10-16T09:14:52;21.70;99.90
18950;DHT22;9608;49.288;8.130;2022-10-16T09:17:34;21.90;99.90
18950;DHT22;9608;49.288;8.130;2022-10-16T09:20:27;21.70;99.90
18950;DHT22;9608;49.288;8.130;2022-10-16T09:23:08;21.40;99.90
18950;DHT22;9608;49.288;8.130;2022-10-16T09:25:38;21.50;99.90
18950;DHT22;9608;49.288;8.130;2022-10-16T09:28:07;21.60;99.90
18950;DHT22;9608;49.288;8.130;2022-10-16T09:30:34;21.70;99.90
18950;DHT22;9608;49.288;8.130;2022-10-16T09:33:03;21.70;99.90
18950;DHT22;9608;49.288;8.130;2022-10-16T09:35:32;21.80;99.90
18950;DHT22;9608;49.288;8.130;2022-10-16T09:38:00;22.00;99.90
18950;DHT22;9608;49.288;8.130;2022-10-16T09:40:30;22.20;99.90
18950;DHT22;9608;49.288;8.130;2022-10-16T09:43:02;22.30;99.90
18950;DHT22;9608;49.288;8.130;2022-10-16T09:45:29;22.30;99.90
18950;DHT22;9608;49.288;8.130;2022-10-16T09:47:56;22.10;99.90
18950;DHT22;9608;49.288;8.130;2022-10-16T09:50:26;22.00;99.90
18950;DHT22;9608;49.288;8.130;2022-10-16T09:53:07;22.10;99.90
18950;DHT22;9608;49.288;8.130;2022-10-16T09:55:35;22.40;99.90
18950;DHT22;9608;49.288;8.130;2022-10-16T09:58:01;22.40;99.90
18950;DHT22;9608;49.288;8.130;2022-10-16T10:00:28;22.30;99.90
18950;DHT22;9608;49.288;8.130;2022-10-16T10:02:55;22.10;99.90
18950;DHT22;9608;49.288;8.130;2022-10-16T10:05:26;21.90;99.90
18950;DHT22;9608;49.288;8.130;2022-10-16T10:07:55;21.90;99.90
18950;DHT22;9608;49.288;8.130;2022-10-16T10:10:25;21.60;99.90
18950;DHT22;9608;49.288;8.130;2022-10-16T10:12:52;21.50;99.90
18950;DHT22;9608;49.288;8.130;2022-10-16T10:15:19;21.50;99.90
18950;DHT22;9608;49.288;8.130;2022-10-16T10:17:49;21.80;99.90
18950;DHT22;9608;49.288;8.130;2022-10-16T10:20:27;22.20;99.90
18950;DHT22;9608;49.288;8.130;2022-10-16T10:22:55;22.40;99.90
18950;DHT22;9608;49.288;8.130;2022-10-16T10:25:34;22.80;99.90
18950;DHT22;9608;49.288;8.130;2022-10-16T10:28:21;23.20;99.90
18950;DHT22;9608;49.288;8.130;2022-10-16T10:30:57;23.40;99.90
18950;DHT22;9608;49.288;8.130;2022-10-16T10:33:31;23.10;99.90
18950;DHT22;9608;49.288;8.130;2022-10-16T10:36:13;23.10;99.90
18950;DHT22;9608;49.288;8.130;2022-10-16T10:38:49;23.40;99.90
18950;DHT22;9608;49.288;8.130;2022-10-16T10:41:34;23.60;99.90
18950;DHT22;9608;49.288;8.130;2022-10-16T10:44:14;23.80;99.90
18950;DHT22;9608;49.288;8.130;2022-10-16T10:46:48;23.60;99.90
18950;DHT22;9608;49.288;8.130;2022-10-16T10:49:34;23.60;99.90
18950;DHT22;9608;49.288;8.130;2022-10-16T10:52:20;23.60;99.90
18950;DHT22;9608;49.288;8.130;2022-10-16T10:54:54;23.40;99.90
18950;DHT22;9608;49.288;8.130;2022-10-16T10:57:29;23.20;99.90
18950;DHT22;9608;49.288;8.130;2022-10-16T11:00:06;22.90;99.90
18950;DHT22;9608;49.288;8.130;2022-10-16T11:02:42;22.60;99.90
18950;DHT22;9608;49.288;8.130;2022-10-16T11:05:26;22.60;99.90
18950;DHT22;9608;49.288;8.130;2022-10-16T11:07:59;22.70;99.90
18950;DHT22;9608;49.288;8.130;2022-10-16T11:10:28;22.90;99.90
18950;DHT22;9608;49.288;8.130;2022-10-16T11:13:02;22.90;99.90
18950;DHT22;9608;49.288;8.130;2022-10-16T11:15:33;23.00;99.90
18950;DHT22;9608;49.288;8.130;2022-10-16T11:18:06;23.00;99.90
18950;DHT22;9608;49.288;8.130;2022-10-16T11:20:36;22.90;99.90
18950;DHT22;9608;49.288;8.130;2022-10-16T11:23:11;22.90;99.90
18950;DHT22;9608;49.288;8.130;2022-10-16T11:25:41;23.00;99.90
18950;DHT22;9608;49.288;8.130;2022-10-16T11:28:11;23.00;99.90
18950;DHT22;9608;49.288;8.130;2022-10-16T11:30:42;23.30;99.90
18950;DHT22;9608;49.288;8.130;2022-10-16T11:33:23;23.40;99.90
18950;DHT22;9608;49.288;8.130;2022-10-16T11:35:54;23.60;99.90
18950;DHT22;9608;49.288;8.130;2022-10-16T11:38:27;23.70;99.90
18950;DHT22;9608;49.288;8.130;2022-10-16T11:41:00;23.60;99.90
18950;DHT22;9608;49.288;8.130;2022-10-16T11:43:32;23.60;99.90
18950;DHT22;9608;49.288;8.130;2022-10-16T11:46:07;23.10;99.90
18950;DHT22;9608;49.288;8.130;2022-10-16T11:48:39;22.90;99.90
18950;DHT22;9608;49.288;8.130;2022-10-16T11:51:14;22.80;99.90
18950;DHT22;9608;49.288;8.130;2022-10-16T11:53:47;22.80;99.90
18950;DHT22;9608;49.288;8.130;2022-10-16T11:56:19;22.90;99.90
18950;DHT22;9608;49.288;8.130;2022-10-16T11:58:53;23.00;99.90
18950;DHT22;9608;49.288;8.130;2022-10-16T12:01:27;23.30;99.90
18950;DHT22;9608;49.288;8.130;2022-10-16T12:04:03;23.60;99.90
18950;DHT22;9608;49.288;8.130;2022-10-16T12:06:34;23.90;99.90
18950;DHT22;9608;49.288;8.130;2022-10-16T12:09:04;24.00;99.90
18950;DHT22;9608;49.288;8.130;2022-10-16T12:11:35;24.00;99.90
18950;DHT22;9608;49.288;8.130;2022-10-16T12:14:07;24.10;99.90
18950;DHT22;9608;49.288;8.130;2022-10-16T12:16:52;24.00;99.90
18950;DHT22;9608;49.288;8.130;2022-10-16T12:19:20;23.90;99.90
18950;DHT22;9608;49.288;8.130;2022-10-16T12:21:48;24.00;99.90
18950;DHT22;9608;49.288;8.130;2022-10-16T12:24:32;24.10;99.90
18950;DHT22;9608;49.288;8.130;2022-10-16T12:27:00;24.10;99.90
18950;DHT22;9608;49.288;8.130;2022-10-16T12:29:36;24.00;99.90
18950;DHT22;9608;49.288;8.130;2022-10-16T12:32:05;24.10;99.90
18950;DHT22;9608;49.288;8.130;2022-10-16T12:34:44;24.10;99.90
18950;DHT22;9608;49.288;8.130;2022-10-16T12:37:14;24.10;99.90
18950;DHT22;9608;49.288;8.130;2022-10-16T12:39:46;24.00;99.90
18950;DHT22;9608;49.288;8.130;2022-10-16T12:42:23;24.00;99.90
18950;DHT22;9608;49.288;8.130;2022-10-16T12:44:57;24.00;99.90
18950;DHT22;9608;49.288;8.130;2022-10-16T12:47:36;24.00;99.90
18950;DHT22;9608;49.288;8.130;2022-10-16T12:50:03;23.80;99.90
18950;DHT22;9608;49.288;8.130;2022-10-16T12:52:48;23.60;99.90
18950;DHT22;9608;49.288;8.130;2022-10-16T12:55:18;23.40;99.90
18950;DHT22;9608;49.288;8.130;2022-10-16T12:58:11;23.30;99.90
18950;DHT22;9608;49.288;8.130;2022-10-16T13:00:45;23.20;99.90
18950;DHT22;9608;49.288;8.130;2022-10-16T13:03:26;23.20;99.90
18950;DHT22;9608;49.288;8.130;2022-10-16T13:06:06;22.90;99.90
18950;DHT22;9608;49.288;8.130;2022-10-16T13:09:00;22.80;99.90
18950;DHT22;9608;49.288;8.130;2022-10-16T13:11:48;22.60;99.90
18950;DHT22;9608;49.288;8.130;2022-10-16T13:14:33;22.50;99.90
18950;DHT22;9608;49.288;8.130;2022-10-16T13:17:09;22.40;99.90
18950;DHT22;9608;49.288;8.130;2022-10-16T13:19:42;22.30;99.90
18950;DHT22;9608;49.288;8.130;2022-10-16T13:22:17;22.20;99.90
18950;DHT22;9608;49.288;8.130;2022-10-16T13:24:56;22.30;99.90
18950;DHT22;9608;49.288;8.130;2022-10-16T13:27:35;22.30;99.90
18950;DHT22;9608;49.288;8.130;2022-10-16T13:30:12;22.10;99.90
18950;DHT22;9608;49.288;8.130;2022-10-16T13:32:40;21.90;99.90
18950;DHT22;9608;49.288;8.130;2022-10-16T13:35:19;21.70;99.90
18950;DHT22;9608;49.288;8.130;2022-10-16T13:37:47;21.80;99.90
18950;DHT22;9608;49.288;8.130;2022-10-16T13:40:19;21.90;99.90
18950;DHT22;9608;49.288;8.130;2022-10-16T13:42:48;21.90;99.90
18950;DHT22;9608;49.288;8.130;2022-10-16T13:45:19;21.80;99.90
18950;DHT22;9608;49.288;8.130;2022-10-16T13:47:47;21.60;99.90
18950;DHT22;9608;49.288;8.130;2022-10-16T13:50:16;21.40;99.90
18950;DHT22;9608;49.288;8.130;2022-10-16T13:52:43;21.40;99.90
18950;DHT22;9608;49.288;8.130;2022-10-16T13:55:11;21.50;99.90
18950;DHT22;9608;49.288;8.130;2022-10-16T13:57:38;21.50;99.90
18950;DHT22;9608;49.288;8.130;2022-10-16T14:00:20;21.20;99.90
18950;DHT22;9608;49.288;8.130;2022-10-16T14:02:51;21.10;99.90
18950;DHT22;9608;49.288;8.130;2022-10-16T14:05:19;21.10;99.90
18950;DHT22;9608;49.288;8.130;2022-10-16T14:07:49;21.10;99.90
18950;DHT22;9608;49.288;8.130;2022-10-16T14:10:23;21.10;99.90
18950;DHT22;9608;49.288;8.130;2022-10-16T14:12:56;21.10;99.90
18950;DHT22;9608;49.288;8.130;2022-10-16T14:15:24;21.10;99.90
18950;DHT22;9608;49.288;8.130;2022-10-16T14:17:52;21.10;99.90
18950;DHT22;9608;49.288;8.130;2022-10-16T14:20:22;21.10;99.90
18950;DHT22;9608;49.288;8.130;2022-10-16T14:22:58;21.10;99.90
18950;DHT22;9608;49.288;8.130;2022-10-16T14:25:27;21.20;99.90
18950;DHT22;9608;49.288;8.130;2022-10-16T14:27:59;21.20;99.90
18950;DHT22;9608;49.288;8.130;2022-10-16T14:30:28;21.20;99.90
18950;DHT22;9608;49.288;8.130;2022-10-16T14:32:57;21.30;99.90
18950;DHT22;9608;49.288;8.130;2022-10-16T14:35:30;21.30;99.90
18950;DHT22;9608;49.288;8.130;2022-10-16T14:37:58;21.50;99.90
18950;DHT22;9608;49.288;8.130;2022-10-16T14:40:27;21.60;99.90
18950;DHT22;9608;49.288;8.130;2022-10-16T14:42:54;21.80;99.90
18950;DHT22;9608;49.288;8.130;2022-10-16T14:45:24;21.90;99.90
18950;DHT22;9608;49.288;8.130;2022-10-16T14:47:54;22.00;99.90
18950;DHT22;9608;49.288;8.130;2022-10-16T14:50:23;22.10;99.90
18950;DHT22;9608;49.288;8.130;2022-10-16T14:52:49;22.10;99.90
18950;DHT22;9608;49.288;8.130;2022-10-16T14:55:17;22.00;99.90
18950;DHT22;9608;49.288;8.130;2022-10-16T14:57:44;21.90;99.90
18950;DHT22;9608;49.288;8.130;2022-10-16T15:00:20;21.90;99.90
18950;DHT22;9608;49.288;8.130;2022-10-16T15:02:48;21.90;99.90
18950;DHT22;9608;49.288;8.130;2022-10-16T15:05:19;22.00;99.90
18950;DHT22;9608;49.288;8.130;2022-10-16T15:07:47;22.10;99.90
18950;DHT22;9608;49.288;8.130;2022-10-16T15:10:15;22.10;99.90
18950;DHT22;9608;49.288;8.130;2022-10-16T15:12:42;22.20;99.90
18950;DHT22;9608;49.288;8.130;2022-10-16T15:15:24;22.10;99.90
18950;DHT22;9608;49.288;8.130;2022-10-16T15:17:52;22.10;99.90
18950;DHT22;9608;49.288;8.130;2022-10-16T15:20:22;22.10;99.90
18950;DHT22;9608;49.288;8.130;2022-10-16T15:22:49;22.10;99.90
18950;DHT22;9608;49.288;8.130;2022-10-16T15:25:27;22.00;99.90
18950;DHT22;9608;49.288;8.130;2022-10-16T15:27:55;21.90;99.90
18950;DHT22;9608;49.288;8.130;2022-10-16T15:30:22;22.00;99.90
18950;DHT22;9608;49.288;8.130;2022-10-16T15:32:49;22.00;99.90
18950;DHT22;9608;49.288;8.130;2022-10-16T15:35:15;21.90;99.90
18950;DHT22;9608;49.288;8.130;2022-10-16T15:37:44;21.90;99.90
18950;DHT22;9608;49.288;8.130;2022-10-16T15:40:11;21.90;99.90
18950;DHT22;9608;49.288;8.130;2022-10-16T15:42:37;21.90;99.90
18950;DHT22;9608;49.288;8.130;2022-10-16T15:45:05;21.80;99.90
18950;DHT22;9608;49.288;8.130;2022-10-16T15:47:32;21.70;99.90
18950;DHT22;9608;49.288;8.130;2022-10-16T15:49:59;21.60;99.90
18950;DHT22;9608;49.288;8.130;2022-10-16T15:52:26;21.60;99.90
18950;DHT22;9608;49.288;8.130;2022-10-16T15:54:55;21.50;99.90
18950;DHT22;9608;49.288;8.130;2022-10-16T15:57:21;21.40;99.90
18950;DHT22;9608;49.288;8.130;2022-10-16T15:59:49;21.30;99.90
18950;DHT22;9608;49.288;8.130;2022-10-16T16:02:16;21.10;99.90
18950;DHT22;9608;49.288;8.130;2022-10-16T16:04:42;21.00;99.90